createdAt,value
2022-12-24T02:29:15.719Z,14.30
2022-12-24T02:30:15.683Z,16.20
2022-12-24T02:31:15.715Z,21.00
2022-12-24T02:32:15.684Z,12.90
2022-12-24T02:33:15.636Z,16.70
2022-12-24T02:34:15.659Z,16.00
2022-12-24T02:35:15.614Z,12.30
2022-12-24T02:36:15.617Z,17.20
2022-12-24T02:37:15.607Z,16.40
2022-12-24T02:38:15.580Z,13.90
2022-12-24T02:39:15.571Z,13.10
2022-12-24T02:40:16.784Z,15.30
2022-12-24T02:41:15.547Z,13.00
2022-12-24T02:42:15.544Z,12.70
2022-12-24T02:43:15.580Z,15.80
2022-12-24T02:44:15.537Z,10.80
2022-12-24T02:45:15.524Z,15.70
2022-12-24T02:46:15.529Z,16.10
2022-12-24T02:47:15.500Z,14.30
2022-12-24T02:48:15.479Z,14.70
2022-12-24T02:49:15.460Z,15.00
2022-12-24T02:50:15.476Z,12.80
2022-12-24T02:51:15.451Z,15.10
2022-12-24T02:52:15.466Z,16.10
2022-12-24T02:53:15.424Z,19.20
2022-12-24T02:54:15.415Z,15.50
2022-12-24T02:55:15.396Z,11.60
2022-12-24T02:56:15.377Z,11.50
2022-12-24T02:57:15.391Z,13.30
2022-12-24T02:58:15.394Z,13.80
2022-12-24T02:59:15.379Z,11.70
2022-12-24T03:00:15.340Z,16.10
2022-12-24T03:01:15.600Z,15.40
2022-12-24T03:02:15.479Z,12.30
2022-12-24T03:03:15.333Z,13.10
2022-12-24T03:04:15.326Z,14.10
2022-12-24T03:05:15.297Z,11.60
2022-12-24T03:06:15.293Z,14.00
2022-12-24T03:07:15.292Z,15.80
2022-12-24T03:08:15.264Z,12.20
2022-12-24T03:09:15.260Z,14.60
2022-12-24T03:10:15.242Z,15.70
2022-12-24T03:11:15.332Z,12.40
2022-12-24T03:12:15.226Z,13.00
2022-12-24T03:13:15.221Z,17.30
2022-12-24T03:14:15.200Z,11.40
2022-12-24T03:15:15.189Z,14.90
2022-12-24T03:16:15.255Z,13.40
2022-12-24T03:17:15.206Z,12.90
2022-12-24T03:18:15.182Z,13.50
2022-12-24T03:19:15.141Z,14.20
2022-12-24T03:20:15.126Z,16.50
2022-12-24T03:21:15.109Z,18.00
2022-12-24T03:22:15.111Z,17.60
2022-12-24T03:23:15.101Z,18.80
2022-12-24T03:24:15.077Z,13.00
2022-12-24T03:25:15.065Z,13.70
2022-12-24T03:26:15.067Z,12.60
2022-12-24T03:27:15.066Z,16.00
2022-12-24T03:28:15.035Z,14.50
2022-12-24T03:29:15.033Z,14.40
2022-12-24T03:30:15.027Z,18.50
2022-12-24T03:31:15.061Z,14.20
2022-12-24T03:32:15.002Z,13.60
2022-12-24T03:33:15.024Z,14.60
2022-12-24T03:34:15.001Z,17.00
2022-12-24T03:35:14.961Z,13.20
2022-12-24T03:36:14.947Z,14.70
2022-12-24T03:37:14.974Z,20.20
2022-12-24T03:38:14.967Z,16.90
2022-12-24T03:39:14.938Z,12.00
2022-12-24T03:40:14.914Z,14.90
2022-12-24T03:41:14.916Z,17.70
2022-12-24T03:42:14.922Z,13.60
2022-12-24T03:43:14.873Z,14.50
2022-12-24T03:44:14.871Z,16.60
2022-12-24T03:45:14.874Z,15.60
2022-12-24T03:46:14.881Z,11.70
2022-12-24T03:47:14.838Z,15.80
2022-12-24T03:48:14.840Z,13.00
2022-12-24T03:49:14.837Z,16.10
2022-12-24T03:50:14.796Z,15.10
2022-12-24T03:51:14.788Z,18.60
2022-12-24T03:52:14.789Z,16.50
2022-12-24T03:53:14.758Z,16.10
2022-12-24T03:54:14.857Z,15.50
2022-12-24T03:55:14.759Z,16.90
2022-12-24T03:56:14.765Z,18.10
2022-12-24T03:57:14.714Z,13.00
2022-12-24T03:58:14.706Z,13.40
2022-12-24T03:59:14.705Z,14.10
2022-12-24T04:00:14.712Z,17.20
2022-12-24T04:01:14.764Z,14.20
2022-12-24T04:02:14.986Z,15.40
2022-12-24T04:03:14.728Z,17.70
2022-12-24T04:04:14.646Z,17.00
2022-12-24T04:05:14.676Z,13.80
2022-12-24T04:06:14.627Z,18.20
2022-12-24T04:07:14.622Z,12.60
2022-12-24T04:08:14.598Z,19.40
2022-12-24T04:09:14.595Z,13.60
2022-12-24T04:10:14.590Z,19.30
2022-12-24T04:11:14.617Z,19.00
2022-12-24T04:12:14.556Z,16.30
2022-12-24T04:13:14.555Z,12.80
2022-12-24T04:14:14.548Z,13.20
2022-12-24T04:15:14.546Z,18.30
2022-12-24T04:16:14.565Z,17.50
2022-12-24T04:17:14.506Z,15.10
2022-12-24T04:18:14.489Z,14.90
2022-12-24T04:19:14.503Z,18.80
2022-12-24T04:20:14.472Z,18.30
2022-12-24T04:21:14.476Z,12.80
2022-12-24T04:22:14.448Z,15.10
2022-12-24T04:23:14.445Z,17.90
2022-12-24T04:24:14.430Z,15.20
2022-12-24T04:25:14.430Z,12.60
2022-12-24T04:26:14.410Z,15.20
2022-12-24T04:27:14.423Z,11.90
2022-12-24T04:28:14.391Z,12.70
2022-12-24T04:30:41.757Z,16.70
2022-12-24T04:31:41.756Z,15.10
2022-12-24T04:32:41.749Z,14.90
2022-12-24T04:33:41.776Z,12.40
2022-12-24T04:34:41.725Z,13.90
2022-12-24T04:35:41.705Z,19.00
2022-12-24T04:36:41.757Z,14.90
2022-12-24T04:37:41.736Z,14.10
2022-12-24T04:38:41.672Z,14.00
2022-12-24T04:39:41.663Z,12.90
2022-12-24T04:40:41.811Z,10.80
2022-12-24T04:41:41.646Z,16.30
2022-12-24T04:42:41.635Z,12.60
2022-12-24T04:43:41.623Z,16.40
2022-12-24T04:44:41.618Z,12.70
2022-12-24T04:45:41.641Z,15.50
2022-12-24T04:46:41.588Z,16.10
2022-12-24T04:47:41.587Z,17.20
2022-12-24T04:48:41.561Z,14.40
2022-12-24T04:49:41.567Z,13.50
2022-12-24T04:50:41.550Z,18.20
2022-12-24T04:51:41.545Z,14.40
2022-12-24T04:52:41.539Z,14.70
2022-12-24T04:53:41.519Z,18.90
2022-12-24T04:54:41.506Z,16.60
2022-12-24T04:55:41.483Z,14.30
2022-12-24T04:56:41.481Z,17.00
2022-12-24T04:57:41.483Z,16.90
2022-12-24T04:58:41.447Z,15.60
2022-12-24T04:59:41.471Z,15.30
2022-12-24T05:00:41.438Z,17.20
2022-12-24T05:01:41.538Z,16.80
2022-12-24T05:02:41.518Z,21.30
2022-12-24T05:03:41.400Z,12.30
2022-12-24T05:04:41.399Z,15.80
2022-12-24T05:05:41.389Z,16.10
2022-12-24T05:06:41.365Z,13.60
2022-12-24T05:07:41.351Z,14.30
2022-12-24T05:08:41.357Z,15.10
2022-12-24T05:09:41.351Z,15.30
2022-12-24T05:10:41.318Z,14.10
2022-12-24T05:11:41.313Z,16.30
2022-12-24T05:12:41.290Z,15.00
2022-12-24T05:13:46.528Z,15.30
2022-12-24T05:14:41.303Z,17.00
2022-12-24T05:15:41.272Z,20.70
2022-12-24T05:16:41.375Z,15.00
2022-12-24T05:17:41.265Z,20.70
2022-12-24T05:18:41.234Z,16.70
2022-12-24T05:19:41.243Z,17.50
2022-12-24T05:20:41.228Z,14.70
2022-12-24T05:21:41.198Z,13.50
2022-12-24T05:22:41.232Z,14.50
2022-12-24T05:23:41.191Z,17.30
2022-12-24T05:24:41.193Z,18.50
2022-12-24T05:25:41.169Z,17.00
2022-12-24T05:26:41.164Z,15.60
2022-12-24T05:27:43.428Z,15.60
2022-12-24T05:28:41.128Z,15.00
2022-12-24T05:29:41.121Z,18.10
2022-12-24T05:30:41.149Z,18.90
2022-12-24T05:31:41.111Z,19.10
2022-12-24T05:32:41.076Z,14.90
2022-12-24T05:33:41.084Z,18.60
2022-12-24T05:34:41.055Z,17.20
2022-12-24T05:35:41.050Z,18.70
2022-12-24T05:36:41.051Z,15.80
2022-12-24T05:37:41.016Z,14.70
2022-12-24T05:38:41.003Z,17.60
2022-12-24T05:39:40.998Z,18.70
2022-12-24T05:40:41.009Z,18.10
2022-12-24T05:41:40.970Z,17.10
2022-12-24T05:42:40.969Z,19.40
2022-12-24T05:43:40.958Z,17.10
2022-12-24T05:44:40.936Z,16.10
2022-12-24T05:45:40.925Z,18.20
2022-12-24T05:46:41.067Z,15.60
2022-12-24T05:47:43.429Z,17.00
2022-12-24T05:48:40.889Z,16.90
2022-12-24T05:49:40.883Z,13.80
2022-12-24T05:50:40.883Z,15.70
2022-12-24T05:51:40.883Z,20.80
2022-12-24T05:52:40.858Z,16.90
2022-12-24T05:53:40.878Z,18.70
2022-12-24T05:54:40.834Z,16.90
2022-12-24T05:55:40.815Z,19.50
2022-12-24T05:56:40.821Z,16.50
2022-12-24T05:57:40.803Z,15.00
2022-12-24T05:58:40.807Z,19.10
2022-12-24T05:59:40.806Z,17.10
2022-12-24T06:00:40.781Z,21.00
2022-12-24T06:01:40.928Z,18.80
2022-12-24T06:02:40.789Z,19.60
2022-12-24T06:03:40.791Z,18.70
2022-12-24T06:04:40.758Z,15.40
2022-12-24T06:05:40.723Z,20.00
2022-12-24T06:06:40.701Z,17.20
2022-12-24T06:07:40.687Z,18.50
2022-12-24T06:08:40.668Z,18.10
2022-12-24T06:09:40.819Z,21.00
2022-12-24T06:10:40.664Z,17.80
2022-12-24T06:11:40.651Z,15.20
2022-12-24T06:12:40.675Z,20.30
2022-12-24T06:13:40.620Z,16.50
2022-12-24T06:14:40.615Z,18.00
2022-12-24T06:15:40.674Z,20.90
2022-12-24T06:16:40.672Z,18.50
2022-12-24T06:17:40.583Z,19.90
2022-12-24T06:18:40.590Z,19.30
2022-12-24T06:19:40.575Z,18.40
2022-12-24T06:20:40.535Z,20.70
2022-12-24T06:21:40.540Z,17.90
2022-12-24T06:22:40.544Z,22.00
2022-12-24T06:23:40.530Z,17.10
2022-12-24T06:24:40.506Z,16.80
2022-12-24T06:25:40.491Z,17.90
2022-12-24T06:26:40.483Z,21.90
2022-12-24T06:27:40.476Z,15.80
2022-12-24T06:28:40.498Z,19.50
2022-12-24T06:29:40.456Z,17.60
2022-12-24T09:37:49.054Z,15.50
2022-12-24T09:38:49.041Z,14.80
2022-12-24T09:39:49.049Z,14.50
2022-12-24T09:40:49.072Z,18.40
2022-12-24T09:41:49.022Z,13.70
2022-12-24T09:42:48.983Z,15.40
2022-12-24T09:43:48.976Z,16.20
2022-12-24T09:44:49.010Z,16.20
2022-12-24T09:45:48.990Z,13.50
2022-12-24T09:46:48.964Z,15.30
2022-12-24T09:47:48.926Z,15.20
2022-12-24T09:48:48.920Z,16.70
2022-12-24T09:49:48.919Z,14.60
2022-12-24T09:50:48.903Z,14.80
2022-12-24T09:51:48.918Z,12.20
2022-12-24T09:52:48.924Z,16.40
2022-12-24T09:53:48.876Z,15.90
2022-12-24T09:54:49.832Z,13.50
2022-12-24T09:55:48.853Z,16.50
2022-12-24T09:56:48.832Z,10.60
2022-12-24T09:57:48.808Z,13.30
2022-12-24T09:58:48.795Z,13.80
2022-12-24T09:59:48.782Z,13.70
2022-12-24T10:00:50.176Z,13.60
2022-12-24T10:01:48.872Z,17.00
2022-12-24T10:02:48.850Z,15.60
2022-12-24T10:03:48.806Z,17.10
2022-12-24T10:04:48.751Z,11.00
2022-12-24T10:05:48.725Z,13.70
2022-12-24T10:06:48.718Z,12.40
2022-12-24T10:07:48.708Z,12.00
2022-12-24T10:08:48.691Z,14.30
2022-12-24T10:09:48.698Z,14.30
2022-12-24T10:10:48.689Z,15.70
2022-12-24T10:11:48.654Z,15.60
2022-12-24T10:12:49.988Z,15.60
2022-12-24T10:13:48.650Z,13.90
2022-12-24T10:14:48.648Z,14.10
2022-12-24T10:15:48.628Z,11.00
2022-12-24T10:16:48.750Z,12.80
2022-12-24T10:17:48.634Z,14.80
2022-12-24T10:18:49.632Z,14.90
2022-12-24T10:19:48.585Z,15.60
2022-12-24T10:20:48.565Z,12.20
2022-12-24T10:21:48.560Z,9.30
2022-12-24T10:22:48.561Z,11.80
2022-12-24T10:23:48.538Z,17.50
2022-12-24T10:24:50.784Z,16.20
2022-12-24T10:25:48.527Z,13.20
2022-12-24T10:26:48.520Z,14.20
2022-12-24T10:27:48.500Z,15.10
2022-12-24T10:28:48.472Z,12.50
2022-12-24T10:29:48.461Z,15.20
2022-12-24T10:30:48.474Z,14.00
2022-12-24T10:31:48.439Z,12.20
2022-12-24T10:32:48.454Z,13.80
2022-12-24T10:33:48.462Z,13.50
2022-12-24T10:34:48.415Z,13.50
2022-12-24T10:35:48.397Z,12.70
2022-12-24T10:36:48.391Z,12.70
2022-12-24T10:37:48.401Z,17.00
2022-12-24T10:38:48.385Z,14.00
2022-12-24T10:39:48.373Z,10.20
2022-12-24T10:40:48.351Z,15.00
2022-12-24T10:41:48.349Z,13.20
2022-12-24T10:42:51.318Z,10.40
2022-12-24T10:43:48.311Z,15.50
2022-12-24T10:44:48.314Z,11.10
2022-12-24T10:45:48.348Z,13.10
2022-12-24T10:46:48.451Z,12.90
2022-12-24T10:47:48.266Z,14.80
2022-12-24T10:48:50.777Z,13.50
2022-12-24T10:49:48.252Z,10.00
2022-12-24T10:50:48.231Z,11.50
2022-12-24T10:51:48.714Z,11.70
2022-12-24T10:52:48.223Z,13.30
2022-12-24T10:53:48.219Z,15.10
2022-12-24T10:54:48.217Z,12.10
2022-12-24T10:55:48.198Z,12.20
2022-12-24T10:56:48.174Z,13.80
2022-12-24T10:57:48.189Z,11.70
2022-12-24T10:58:48.166Z,13.30
2022-12-24T10:59:48.141Z,13.50
2022-12-24T11:00:48.143Z,10.40
2022-12-24T11:01:48.322Z,13.00
2022-12-24T11:02:48.264Z,12.60
2022-12-24T11:03:48.118Z,11.80
2022-12-24T11:04:48.077Z,12.80
2022-12-24T11:05:48.069Z,10.60
2022-12-24T11:06:49.426Z,14.20
2022-12-24T11:07:48.080Z,11.10
2022-12-24T11:08:48.042Z,10.70
2022-12-24T11:09:48.032Z,9.70
2022-12-24T11:10:48.030Z,14.10
2022-12-24T11:11:47.999Z,9.60
2022-12-24T11:13:05.724Z,11.20
2022-12-24T11:13:47.995Z,15.60
2022-12-24T11:14:47.965Z,11.60
2022-12-24T11:15:47.977Z,11.00
2022-12-24T11:16:47.985Z,13.00
2022-12-24T11:17:47.953Z,13.20
2022-12-24T11:18:51.366Z,8.60
2022-12-24T11:19:47.912Z,11.10
2022-12-24T11:20:47.909Z,10.00
2022-12-24T11:21:47.914Z,11.80
2022-12-24T11:22:47.914Z,15.30
2022-12-24T11:23:47.923Z,13.40
2022-12-24T11:24:50.207Z,11.80
2022-12-24T11:25:47.854Z,11.60
2022-12-24T11:26:47.843Z,11.20
2022-12-24T11:27:47.830Z,12.50
2022-12-24T11:28:47.809Z,10.60
2022-12-24T11:29:47.815Z,14.80
2022-12-24T11:30:47.919Z,11.70
2022-12-24T11:31:47.795Z,12.10
2022-12-24T11:32:47.788Z,13.10
2022-12-24T11:33:47.758Z,12.80
2022-12-24T11:34:47.794Z,12.00
2022-12-24T11:35:47.761Z,12.70
2022-12-24T11:36:47.744Z,12.50
2022-12-24T22:57:53.616Z,18.20
2022-12-24T22:58:53.560Z,21.60
2022-12-24T22:59:53.545Z,23.90
2022-12-24T23:00:53.542Z,21.10
2022-12-24T23:01:53.839Z,18.20
2022-12-24T23:02:53.656Z,22.90
2022-12-24T23:03:53.533Z,24.10
2022-12-24T23:04:53.486Z,20.50
2022-12-24T23:05:53.468Z,19.90
2022-12-24T23:06:53.464Z,21.70
2022-12-24T23:07:53.459Z,20.90
2022-12-24T23:08:53.433Z,18.30
2022-12-24T23:09:53.466Z,21.10
2022-12-24T23:10:53.416Z,20.80
2022-12-24T23:11:53.416Z,21.10
2022-12-24T23:12:53.389Z,23.60
2022-12-24T23:13:53.398Z,23.90
2022-12-24T23:14:53.381Z,22.60
2022-12-24T23:15:53.487Z,23.70
2022-12-24T23:16:53.357Z,20.60
2022-12-24T23:17:53.344Z,25.40
2022-12-24T23:18:53.343Z,20.80
2022-12-24T23:19:53.321Z,22.70
2022-12-24T23:20:53.300Z,26.30
2022-12-24T23:21:53.289Z,22.40
2022-12-24T23:22:53.276Z,25.10
2022-12-24T23:23:53.280Z,23.60
2022-12-24T23:24:53.265Z,20.30
2022-12-24T23:25:53.246Z,22.10
2022-12-24T23:26:53.231Z,26.90
2022-12-24T23:27:53.235Z,21.70
2022-12-24T23:28:53.229Z,21.50
2022-12-24T23:29:53.229Z,25.90
2022-12-24T23:30:53.279Z,24.40
2022-12-24T23:31:53.180Z,23.30
2022-12-24T23:32:53.172Z,27.30
2022-12-24T23:33:53.158Z,25.30
2022-12-24T23:34:53.149Z,23.50
2022-12-24T23:35:53.171Z,21.30
2022-12-24T23:36:53.128Z,25.30
2022-12-24T23:37:53.116Z,24.00
2022-12-24T23:38:53.102Z,24.40
2022-12-24T23:39:53.123Z,27.30
2022-12-24T23:40:53.078Z,26.40
2022-12-24T23:41:53.104Z,22.70
2022-12-24T23:42:53.102Z,27.30
2022-12-24T23:43:53.074Z,20.60
2022-12-24T23:44:53.035Z,22.70
2022-12-24T23:45:53.077Z,23.20
2022-12-24T23:46:53.053Z,21.00
2022-12-24T23:47:53.011Z,23.20
2022-12-24T23:48:52.997Z,23.30
2022-12-24T23:49:52.994Z,23.60
2022-12-24T23:50:52.984Z,19.10
2022-12-24T23:51:52.965Z,20.90
2022-12-24T23:52:52.948Z,22.00
2022-12-24T23:53:52.947Z,20.90
2022-12-24T23:54:52.956Z,18.20
2022-12-24T23:55:52.919Z,19.40
2022-12-24T23:56:52.919Z,22.00
2022-12-24T23:57:52.899Z,21.80
2022-12-24T23:58:52.907Z,22.70
2022-12-24T23:59:52.876Z,20.30
